Bookmark and Share
Track history (hours):
 

Apellis

Last reported at 2014-Apr-15 18:33 UTC. Time now 2014-Apr-16 10:31 UTC.
Position N 46°18' E 030°48'.

Length 178 m; draft 9.6 m.

Type: Cargo ship. MMSI: 353847000.

NotesDate/timePositionNaut miles runAvg speedWind from/ knotsBaromVisibWave heightAir tempDewpointWater temp
2014-Apr-15 18:33N 46°18' E 030°48'11 8.9
2014-Apr-15 17:21N 46°14' E 031°02'911.1
2014-Apr-15 16:33N 46°07' E 031°10'1511.8
2014-Apr-15 15:18N 45°52' E 031°07'28412.0
2014-Apr-14 15:34N 41°20' E 029°14'327 7.4
2014-Apr-12 19:27N 37°36' E 024°06'1412.5
2014-Apr-12 18:19N 37°38' E 023°48'911.4
2014-Apr-12 17:33N 37°43' E 023°40'1010.2
2014-Apr-12 16:34N 37°52' E 023°33'0 0.3
2014-Apr-12 15:32N 37°52' E 023°33'0 0.0
2014-Apr-12 14:32N 37°52' E 023°33'0 0.0
2014-Apr-12 13:29N 37°52' E 023°33'0 0.0
2014-Apr-12 12:32N 37°52' E 023°33'0 0.0
2014-Apr-12 11:29N 37°52' E 023°33'0 0.0
2014-Apr-12 10:29N 37°52' E 023°33'0 0.0
2014-Apr-12 09:32N 37°52' E 023°33'0 0.0
2014-Apr-12 08:31N 37°52' E 023°33'0 0.1
2014-Apr-12 07:33N 37°52' E 023°33'0 0.2
2014-Apr-12 06:33N 37°52' E 023°33'5 5.1
2014-Apr-12 05:33N 37°50' E 023°39'1010.1
2014-Apr-12 04:33N 37°41' E 023°45'41010.0
2014-Apr-10 11:33N 36°27' E 015°19'16311.5
2014-Apr-09 21:21N 36°59' E 012°00'911.6
2014-Apr-09 20:32N 37°04' E 011°50'1111.5
2014-Apr-09 19:33N 37°09' E 011°38'1211.6
2014-Apr-09 18:33N 37°15' E 011°25'1211.9
2014-Apr-09 17:33N 37°21' E 011°12'1211.8
2014-Apr-09 16:33N 37°26' E 010°58'1212.2
2014-Apr-09 15:33N 37°28' E 010°43'1212.4
2014-Apr-09 14:33N 37°31' E 010°28'1312.9
2014-Apr-09 13:33N 37°33' E 010°12'1212.5
2014-Apr-09 12:33N 37°32' E 009°56'23111.9
2014-Apr-08 17:08N 37°19' E 005°06'3311.8
2014-Apr-08 14:19N 37°15' E 004°24'911.9
2014-Apr-08 13:33N 37°14' E 004°13'1312.7
2014-Apr-08 12:33N 37°12' E 003°57'1212.1
2014-Apr-08 11:33N 37°11' E 003°42'1312.9
2014-Apr-08 10:32N 37°09' E 003°25'1812.9
2014-Apr-08 09:07N 37°07' E 003°03'1012.4
2014-Apr-08 08:17N 37°05' E 002°50'1513.9
2014-Apr-08 07:14N 37°03' E 002°32'1112.9
2014-Apr-08 06:22N 37°01' E 002°18'37311.4
2014-Apr-06 21:33N 36°08' W 005°22'0 0.2
2014-Apr-06 20:31N 36°07' W 005°22'0 0.1
2014-Apr-06 19:31N 36°07' W 005°22'0 0.1
2014-Apr-06 18:31N 36°08' W 005°22'0 0.0
2014-Apr-06 17:31N 36°08' W 005°22'0 0.1
2014-Apr-06 16:31N 36°08' W 005°22'0 0.1
2014-Apr-06 15:31N 36°08' W 005°22'0 0.1
2014-Apr-06 14:31N 36°07' W 005°22'0 0.0
2014-Apr-06 13:31N 36°07' W 005°22'0 0.0
2014-Apr-06 12:28N 36°07' W 005°22'0 0.3
2014-Apr-06 11:33N 36°07' W 005°22'5 5.4
2014-Apr-06 10:33N 36°02' W 005°22'9 9.5
2014-Apr-06 09:33N 35°57' W 005°32'  

Dump ship's entire track history

sailing weather and tide predictions

Apellis — 3FJT2 — position and weather